sensor_id;sensor_type;location;lat;lon;timestamp;pressure;altitude;pressure_sealevel;temperature
41654;BMP280;30790;52.030;7.110;2022-08-18T00:01:14;100494.00;;;24.35
41654;BMP280;30790;52.030;7.110;2022-08-18T00:03:41;100505.50;;;24.38
41654;BMP280;30790;52.030;7.110;2022-08-18T00:06:06;100500.31;;;24.36
41654;BMP280;30790;52.030;7.110;2022-08-18T00:08:32;100474.28;;;24.13
41654;BMP280;30790;52.030;7.110;2022-08-18T00:10:57;100492.66;;;24.28
41654;BMP280;30790;52.030;7.110;2022-08-18T00:13:23;100501.13;;;24.37
41654;BMP280;30790;52.030;7.110;2022-08-18T00:15:49;100507.72;;;24.35
41654;BMP280;30790;52.030;7.110;2022-08-18T00:18:15;100508.25;;;24.27
41654;BMP280;30790;52.030;7.110;2022-08-18T00:20:40;100511.00;;;24.32
41654;BMP280;30790;52.030;7.110;2022-08-18T00:23:05;100510.19;;;24.32
41654;BMP280;30790;52.030;7.110;2022-08-18T00:25:31;100504.97;;;24.25
41654;BMP280;30790;52.030;7.110;2022-08-18T00:27:56;100503.31;;;24.24
41654;BMP280;30790;52.030;7.110;2022-08-18T00:30:22;100512.69;;;24.28
41654;BMP280;30790;52.030;7.110;2022-08-18T00:32:50;100513.19;;;24.25
41654;BMP280;30790;52.030;7.110;2022-08-18T00:37:46;100509.91;;;24.23
41654;BMP280;30790;52.030;7.110;2022-08-18T00:40:19;100523.91;;;24.32
41654;BMP280;30790;52.030;7.110;2022-08-18T00:42:48;100516.78;;;24.31
41654;BMP280;30790;52.030;7.110;2022-08-18T00:45:18;100521.16;;;24.32
41654;BMP280;30790;52.030;7.110;2022-08-18T00:47:44;100521.44;;;24.30
41654;BMP280;30790;52.030;7.110;2022-08-18T00:50:14;100526.94;;;24.30
41654;BMP280;30790;52.030;7.110;2022-08-18T00:52:40;100514.03;;;24.26
41654;BMP280;30790;52.030;7.110;2022-08-18T00:55:06;100514.84;;;24.26
41654;BMP280;30790;52.030;7.110;2022-08-18T00:57:32;100534.06;;;24.31
41654;BMP280;30790;52.030;7.110;2022-08-18T01:00:07;100525.28;;;24.29
41654;BMP280;30790;52.030;7.110;2022-08-18T01:02:43;100519.81;;;24.29
41654;BMP280;30790;52.030;7.110;2022-08-18T01:05:33;100512.13;;;24.21
41654;BMP280;30790;52.030;7.110;2022-08-18T01:08:02;100512.38;;;24.25
41654;BMP280;30790;52.030;7.110;2022-08-18T01:10:31;100518.41;;;24.22
41654;BMP280;30790;52.030;7.110;2022-08-18T01:12:57;100513.47;;;24.24
41654;BMP280;30790;52.030;7.110;2022-08-18T01:15:24;100524.72;;;24.27
41654;BMP280;30790;52.030;7.110;2022-08-18T01:17:50;100520.88;;;24.23
41654;BMP280;30790;52.030;7.110;2022-08-18T01:20:38;100521.97;;;24.27
41654;BMP280;30790;52.030;7.110;2022-08-18T01:23:26;100516.75;;;24.26
41654;BMP280;30790;52.030;7.110;2022-08-18T01:25:52;100509.66;;;24.20
41654;BMP280;30790;52.030;7.110;2022-08-18T01:28:33;100504.72;;;24.22
41654;BMP280;30790;52.030;7.110;2022-08-18T01:31:00;100503.88;;;24.26
41654;BMP280;30790;52.030;7.110;2022-08-18T01:33:29;100511.56;;;24.24
41654;BMP280;30790;52.030;7.110;2022-08-18T01:35:58;100513.19;;;24.25
41654;BMP280;30790;52.030;7.110;2022-08-18T01:38:23;100498.13;;;24.18
41654;BMP280;30790;52.030;7.110;2022-08-18T01:40:50;100510.72;;;24.24
41654;BMP280;30790;52.030;7.110;2022-08-18T01:43:16;100492.94;;;24.16
41654;BMP280;30790;52.030;7.110;2022-08-18T01:45:41;100492.38;;;24.14
41654;BMP280;30790;52.030;7.110;2022-08-18T01:48:07;100500.88;;;24.23
41654;BMP280;30790;52.030;7.110;2022-08-18T01:50:34;100488.25;;;24.22
41654;BMP280;30790;52.030;7.110;2022-08-18T01:53:01;100498.13;;;24.23
41654;BMP280;30790;52.030;7.110;2022-08-18T01:55:30;100493.47;;;24.23
41654;BMP280;30790;52.030;7.110;2022-08-18T01:57:55;100500.88;;;24.23
41654;BMP280;30790;52.030;7.110;2022-08-18T02:00:21;100498.41;;;24.21
41654;BMP280;30790;52.030;7.110;2022-08-18T02:02:48;100485.25;;;24.13
41654;BMP280;30790;52.030;7.110;2022-08-18T02:05:16;100485.25;;;24.18
41654;BMP280;30790;52.030;7.110;2022-08-18T02:07:43;100496.47;;;24.22
41654;BMP280;30790;52.030;7.110;2022-08-18T02:10:09;100494.00;;;24.20
41654;BMP280;30790;52.030;7.110;2022-08-18T02:12:36;100485.81;;;24.15
41654;BMP280;30790;52.030;7.110;2022-08-18T02:15:03;100483.03;;;24.20
41654;BMP280;30790;52.030;7.110;2022-08-18T02:17:28;100478.66;;;24.14
41654;BMP280;30790;52.030;7.110;2022-08-18T02:20:00;100491.28;;;24.15
41654;BMP280;30790;52.030;7.110;2022-08-18T02:22:25;100486.91;;;24.14
41654;BMP280;30790;52.030;7.110;2022-08-18T02:24:50;100493.22;;;24.15
41654;BMP280;30790;52.030;7.110;2022-08-18T02:27:16;100481.97;;;24.11
41654;BMP280;30790;52.030;7.110;2022-08-18T02:29:41;100487.47;;;24.11
41654;BMP280;30790;52.030;7.110;2022-08-18T02:32:07;100499.50;;;24.20
41654;BMP280;30790;52.030;7.110;2022-08-18T02:34:33;100476.72;;;24.10
41654;BMP280;30790;52.030;7.110;2022-08-18T02:36:59;100481.69;;;24.13
41654;BMP280;30790;52.030;7.110;2022-08-18T02:39:25;100484.16;;;24.14
41654;BMP280;30790;52.030;7.110;2022-08-18T02:41:50;100492.66;;;24.13
41654;BMP280;30790;52.030;7.110;2022-08-18T02:44:16;100471.28;;;23.99
41654;BMP280;30790;52.030;7.110;2022-08-18T02:46:41;100500.06;;;24.17
41654;BMP280;30790;52.030;7.110;2022-08-18T02:49:07;100513.75;;;24.17
41654;BMP280;30790;52.030;7.110;2022-08-18T02:51:33;100508.28;;;24.17
41654;BMP280;30790;52.030;7.110;2022-08-18T02:53:58;100500.06;;;24.12
41654;BMP280;30790;52.030;7.110;2022-08-18T02:56:26;100511.59;;;24.14
41654;BMP280;30790;52.030;7.110;2022-08-18T02:59:02;100522.28;;;24.16
41654;BMP280;30790;52.030;7.110;2022-08-18T03:01:32;100516.78;;;24.16
41654;BMP280;30790;52.030;7.110;2022-08-18T03:03:59;100519.25;;;24.12
41654;BMP280;30790;52.030;7.110;2022-08-18T03:06:26;100531.31;;;24.16
41654;BMP280;30790;52.030;7.110;2022-08-18T03:08:53;100515.41;;;24.08
41654;BMP280;30790;52.030;7.110;2022-08-18T03:11:21;100528.56;;;24.16
41654;BMP280;30790;52.030;7.110;2022-08-18T03:13:48;100517.59;;;24.06
41654;BMP280;30790;52.030;7.110;2022-08-18T03:16:14;100529.69;;;24.15
41654;BMP280;30790;52.030;7.110;2022-08-18T03:18:41;100524.75;;;24.12
41654;BMP280;30790;52.030;7.110;2022-08-18T03:21:08;100516.78;;;24.05
41654;BMP280;30790;52.030;7.110;2022-08-18T03:23:34;100517.59;;;24.06
41654;BMP280;30790;52.030;7.110;2022-08-18T03:26:00;100515.44;;;24.13
41654;BMP280;30790;52.030;7.110;2022-08-18T03:28:26;100510.22;;;24.12
41654;BMP280;30790;52.030;7.110;2022-08-18T03:30:52;100503.63;;;24.08
41654;BMP280;30790;52.030;7.110;2022-08-18T03:33:18;100511.03;;;24.12
41654;BMP280;30790;52.030;7.110;2022-08-18T03:35:43;100498.94;;;24.08
41654;BMP280;30790;52.030;7.110;2022-08-18T03:38:08;100495.38;;;24.08
41654;BMP280;30790;52.030;7.110;2022-08-18T03:40:33;100488.81;;;24.09
41654;BMP280;30790;52.030;7.110;2022-08-18T03:43:04;100501.16;;;24.11
41654;BMP280;30790;52.030;7.110;2022-08-18T03:45:34;100508.28;;;24.07
41654;BMP280;30790;52.030;7.110;2022-08-18T03:48:00;100512.13;;;24.11
41654;BMP280;30790;52.030;7.110;2022-08-18T03:50:27;100509.38;;;24.06
41654;BMP280;30790;52.030;7.110;2022-08-18T03:52:53;100506.34;;;24.08
41654;BMP280;30790;52.030;7.110;2022-08-18T03:55:19;100501.44;;;24.04
41654;BMP280;30790;52.030;7.110;2022-08-18T03:57:45;100509.63;;;24.10
41654;BMP280;30790;52.030;7.110;2022-08-18T04:00:11;100499.25;;;24.01
41654;BMP280;30790;52.030;7.110;2022-08-18T04:02:38;100503.88;;;24.06
41654;BMP280;30790;52.030;7.110;2022-08-18T04:05:04;100500.34;;;24.11
41654;BMP280;30790;52.030;7.110;2022-08-18T04:07:30;100493.22;;;24.15
41654;BMP280;30790;52.030;7.110;2022-08-18T04:09:56;100502.78;;;24.17
41654;BMP280;30790;52.030;7.110;2022-08-18T04:12:21;100512.94;;;24.22
41654;BMP280;30790;52.030;7.110;2022-08-18T04:14:48;100506.63;;;24.26
41654;BMP280;30790;52.030;7.110;2022-08-18T04:17:15;100502.22;;;24.25
41654;BMP280;30790;52.030;7.110;2022-08-18T04:19:41;100491.28;;;24.15
41654;BMP280;30790;52.030;7.110;2022-08-18T04:22:07;100508.53;;;24.26
41654;BMP280;30790;52.030;7.110;2022-08-18T04:24:32;100501.69;;;24.18
41654;BMP280;30790;52.030;7.110;2022-08-18T04:27:02;100515.13;;;24.20
41654;BMP280;30790;52.030;7.110;2022-08-18T04:29:28;100503.91;;;24.16
41654;BMP280;30790;52.030;7.110;2022-08-18T04:31:54;100504.19;;;24.15
41654;BMP280;30790;52.030;7.110;2022-08-18T04:34:21;100522.00;;;24.17
41654;BMP280;30790;52.030;7.110;2022-08-18T04:36:47;100531.84;;;24.23
41654;BMP280;30790;52.030;7.110;2022-08-18T04:39:13;100524.72;;;24.22
41654;BMP280;30790;52.030;7.110;2022-08-18T04:41:41;100521.97;;;24.22
41654;BMP280;30790;52.030;7.110;2022-08-18T04:44:08;100511.59;;;24.14
41654;BMP280;30790;52.030;7.110;2022-08-18T04:46:40;100530.22;;;24.22
41654;BMP280;30790;52.030;7.110;2022-08-18T04:49:07;100536.78;;;24.21
41654;BMP280;30790;52.030;7.110;2022-08-18T04:51:33;100520.34;;;24.16
41654;BMP280;30790;52.030;7.110;2022-08-18T04:53:59;100536.25;;;24.19
41654;BMP280;30790;52.030;7.110;2022-08-18T04:56:42;100536.25;;;24.14
41654;BMP280;30790;52.030;7.110;2022-08-18T04:59:11;100545.84;;;24.17
41654;BMP280;30790;52.030;7.110;2022-08-18T05:01:42;100527.47;;;24.07
41654;BMP280;30790;52.030;7.110;2022-08-18T05:04:10;100522.81;;;24.02
41654;BMP280;30790;52.030;7.110;2022-08-18T05:06:38;100541.75;;;24.14
41654;BMP280;30790;52.030;7.110;2022-08-18T05:09:06;100546.13;;;24.10
41654;BMP280;30790;52.030;7.110;2022-08-18T05:11:33;100548.34;;;24.13
41654;BMP280;30790;52.030;7.110;2022-08-18T05:14:00;100554.63;;;24.14
41654;BMP280;30790;52.030;7.110;2022-08-18T05:16:27;100543.09;;;24.07
41654;BMP280;30790;52.030;7.110;2022-08-18T05:18:53;100558.47;;;24.13
41654;BMP280;30790;52.030;7.110;2022-08-18T05:21:20;100566.72;;;24.13
41654;BMP280;30790;52.030;7.110;2022-08-18T05:23:48;100560.69;;;24.11
41654;BMP280;30790;52.030;7.110;2022-08-18T05:26:16;100558.72;;;24.06
41654;BMP280;30790;52.030;7.110;2022-08-18T05:28:43;100556.84;;;24.12
41654;BMP280;30790;52.030;7.110;2022-08-18T05:31:15;100556.84;;;24.12
41654;BMP280;30790;52.030;7.110;2022-08-18T05:33:41;100554.91;;;24.12
41654;BMP280;30790;52.030;7.110;2022-08-18T05:41:36;100554.78;;;23.36
41654;BMP280;30790;52.030;7.110;2022-08-18T05:44:02;100552.53;;;23.18
41654;BMP280;30790;52.030;7.110;2022-08-18T05:46:43;100554.72;;;23.21
41654;BMP280;30790;52.030;7.110;2022-08-18T05:49:11;100539.84;;;22.91
41654;BMP280;30790;52.030;7.110;2022-08-18T05:51:41;100560.72;;;23.12
41654;BMP280;30790;52.030;7.110;2022-08-18T05:54:08;100561.28;;;23.15
41654;BMP280;30790;52.030;7.110;2022-08-18T05:56:57;100562.84;;;22.95
41654;BMP280;30790;52.030;7.110;2022-08-18T05:59:29;100556.53;;;22.90
41654;BMP280;30790;52.030;7.110;2022-08-18T06:02:05;100563.47;;;23.07
41654;BMP280;30790;52.030;7.110;2022-08-18T06:04:49;100546.66;;;22.84
41654;BMP280;30790;52.030;7.110;2022-08-18T06:07:18;100564.44;;;22.81
41654;BMP280;30790;52.030;7.110;2022-08-18T06:09:51;100565.47;;;22.75
41654;BMP280;30790;52.030;7.110;2022-08-18T06:20:36;100577.84;;;22.83
41654;BMP280;30790;52.030;7.110;2022-08-18T06:23:33;100573.59;;;22.65
41654;BMP280;30790;52.030;7.110;2022-08-18T06:28:48;100582.91;;;22.69
41654;BMP280;30790;52.030;7.110;2022-08-18T06:31:22;100595.44;;;22.55
41654;BMP280;30790;52.030;7.110;2022-08-18T06:39:21;100610.53;;;22.62
41654;BMP280;30790;52.030;7.110;2022-08-18T06:41:49;100603.25;;;22.41
41654;BMP280;30790;52.030;7.110;2022-08-18T06:44:30;100611.16;;;22.37
41654;BMP280;30790;52.030;7.110;2022-08-18T06:47:01;100608.94;;;22.34
41654;BMP280;30790;52.030;7.110;2022-08-18T06:49:47;100611.94;;;22.33
41654;BMP280;30790;52.030;7.110;2022-08-18T06:52:30;100619.31;;;22.32
41654;BMP280;30790;52.030;7.110;2022-08-18T06:55:04;100624.53;;;22.34
41654;BMP280;30790;52.030;7.110;2022-08-18T06:57:37;100629.69;;;22.67
41654;BMP280;30790;52.030;7.110;2022-08-18T07:00:22;100626.03;;;22.89
41654;BMP280;30790;52.030;7.110;2022-08-18T07:03:04;100633.00;;;23.06
41654;BMP280;30790;52.030;7.110;2022-08-18T07:05:33;100642.28;;;23.05
41654;BMP280;30790;52.030;7.110;2022-08-18T07:13:15;100641.22;;;23.11
41654;BMP280;30790;52.030;7.110;2022-08-18T07:15:40;100621.16;;;22.96
41654;BMP280;30790;52.030;7.110;2022-08-18T07:18:08;100628.56;;;23.00
41654;BMP280;30790;52.030;7.110;2022-08-18T07:20:49;100622.03;;;23.01
41654;BMP280;30790;52.030;7.110;2022-08-18T07:23:34;100642.84;;;23.02
41654;BMP280;30790;52.030;7.110;2022-08-18T07:28:49;100636.47;;;22.97
41654;BMP280;30790;52.030;7.110;2022-08-18T07:34:35;100650.09;;;23.29
41654;BMP280;30790;52.030;7.110;2022-08-18T07:40:17;100638.59;;;23.37
41654;BMP280;30790;52.030;7.110;2022-08-18T07:42:39;100637.25;;;23.39
41654;BMP280;30790;52.030;7.110;2022-08-18T07:45:44;100629.28;;;23.38
41654;BMP280;30790;52.030;7.110;2022-08-18T07:48:20;100636.72;;;23.48
41654;BMP280;30790;52.030;7.110;2022-08-18T07:51:00;100651.88;;;23.60
41654;BMP280;30790;52.030;7.110;2022-08-18T07:53:36;100646.41;;;23.60
41654;BMP280;30790;52.030;7.110;2022-08-18T07:58:57;100644.41;;;23.51
41654;BMP280;30790;52.030;7.110;2022-08-18T08:01:40;100636.16;;;23.40
41654;BMP280;30790;52.030;7.110;2022-08-18T08:07:04;100641.91;;;23.44
41654;BMP280;30790;52.030;7.110;2022-08-18T08:15:26;100644.38;;;23.46
41654;BMP280;30790;52.030;7.110;2022-08-18T08:18:23;100640.09;;;23.60
41654;BMP280;30790;52.030;7.110;2022-08-18T08:20:57;100645.03;;;23.68
41654;BMP280;30790;52.030;7.110;2022-08-18T08:23:33;100638.63;;;23.47
41654;BMP280;30790;52.030;7.110;2022-08-18T08:28:56;100642.97;;;23.33
41654;BMP280;30790;52.030;7.110;2022-08-18T08:34:28;100665.19;;;23.36
41654;BMP280;30790;52.030;7.110;2022-08-18T08:37:04;100651.47;;;23.31
41654;BMP280;30790;52.030;7.110;2022-08-18T08:42:17;100668.94;;;23.25
41654;BMP280;30790;52.030;7.110;2022-08-18T08:44:50;100671.38;;;23.22
41654;BMP280;30790;52.030;7.110;2022-08-18T08:47:24;100662.63;;;23.25
41654;BMP280;30790;52.030;7.110;2022-08-18T08:50:02;100651.09;;;23.18
41654;BMP280;30790;52.030;7.110;2022-08-18T08:52:33;100658.22;;;23.19
41654;BMP280;30790;52.030;7.110;2022-08-18T08:55:02;100664.88;;;23.33
41654;BMP280;30790;52.030;7.110;2022-08-18T08:57:37;100646.81;;;23.32
41654;BMP280;30790;52.030;7.110;2022-08-18T09:00:08;100661.94;;;23.50
41654;BMP280;30790;52.030;7.110;2022-08-18T09:05:50;100651.75;;;23.40
41654;BMP280;30790;52.030;7.110;2022-08-18T09:11:18;100656.25;;;23.56
41654;BMP280;30790;52.030;7.110;2022-08-18T09:22:05;100670.53;;;23.73
41654;BMP280;30790;52.030;7.110;2022-08-18T09:24:48;100657.94;;;23.72
41654;BMP280;30790;52.030;7.110;2022-08-18T09:27:41;100676.31;;;23.77
41654;BMP280;30790;52.030;7.110;2022-08-18T09:39:04;100669.97;;;23.71
41654;BMP280;30790;52.030;7.110;2022-08-18T09:42:00;100690.56;;;23.79
41654;BMP280;30790;52.030;7.110;2022-08-18T09:49:56;100697.41;;;23.82
41654;BMP280;30790;52.030;7.110;2022-08-18T09:54:57;100679.59;;;23.79
41654;BMP280;30790;52.030;7.110;2022-08-18T09:57:25;100676.06;;;23.84
41654;BMP280;30790;52.030;7.110;2022-08-18T10:10:42;100668.41;;;23.86
41654;BMP280;30790;52.030;7.110;2022-08-18T10:13:24;100670.59;;;23.89
41654;BMP280;30790;52.030;7.110;2022-08-18T10:16:05;100672.25;;;23.90
41654;BMP280;30790;52.030;7.110;2022-08-18T10:21:15;100667.56;;;23.85
41654;BMP280;30790;52.030;7.110;2022-08-18T10:29:09;100666.22;;;23.93
41654;BMP280;30790;52.030;7.110;2022-08-18T10:34:40;100663.47;;;23.98
41654;BMP280;30790;52.030;7.110;2022-08-18T10:42:10;100658.00;;;24.03
41654;BMP280;30790;52.030;7.110;2022-08-18T10:44:43;100654.69;;;24.01
41654;BMP280;30790;52.030;7.110;2022-08-18T10:47:23;100660.19;;;24.06
41654;BMP280;30790;52.030;7.110;2022-08-18T10:49:50;100659.41;;;24.11
41654;BMP280;30790;52.030;7.110;2022-08-18T11:03:50;100660.78;;;24.18
41654;BMP280;30790;52.030;7.110;2022-08-18T11:06:23;100659.13;;;24.12
41654;BMP280;30790;52.030;7.110;2022-08-18T11:08:53;100654.69;;;24.06
41654;BMP280;30790;52.030;7.110;2022-08-18T11:11:21;100645.38;;;24.02
41654;BMP280;30790;52.030;7.110;2022-08-18T11:19:07;100660.75;;;24.08
41654;BMP280;30790;52.030;7.110;2022-08-18T11:24:26;100656.06;;;24.03
41654;BMP280;30790;52.030;7.110;2022-08-18T11:26:52;100656.06;;;24.03
41654;BMP280;30790;52.030;7.110;2022-08-18T11:29:51;100658.00;;;24.03
41654;BMP280;30790;52.030;7.110;2022-08-18T11:32:22;100656.34;;;24.07
41654;BMP280;30790;52.030;7.110;2022-08-18T11:35:12;100651.41;;;23.99
41654;BMP280;30790;52.030;7.110;2022-08-18T11:42:57;100645.38;;;24.02
41654;BMP280;30790;52.030;7.110;2022-08-18T11:45:28;100628.09;;;23.96
41654;BMP280;30790;52.030;7.110;2022-08-18T11:48:30;100640.72;;;24.02
41654;BMP280;30790;52.030;7.110;2022-08-18T12:01:27;100634.97;;;23.99
41654;BMP280;30790;52.030;7.110;2022-08-18T12:03:55;100633.88;;;24.00
41654;BMP280;30790;52.030;7.110;2022-08-18T12:06:26;100632.75;;;24.01
41654;BMP280;30790;52.030;7.110;2022-08-18T12:08:59;100610.28;;;23.94
41654;BMP280;30790;52.030;7.110;2022-08-18T12:11:29;100615.22;;;23.97
41654;BMP280;30790;52.030;7.110;2022-08-18T12:14:05;100602.34;;;23.92
41654;BMP280;30790;52.030;7.110;2022-08-18T12:16:39;100602.59;;;23.91
41654;BMP280;30790;52.030;7.110;2022-08-18T12:19:12;100608.09;;;23.96
41654;BMP280;30790;52.030;7.110;2022-08-18T12:21:44;100617.13;;;24.01
41654;BMP280;30790;52.030;7.110;2022-08-18T12:24:28;100616.31;;;24.01
41654;BMP280;30790;52.030;7.110;2022-08-18T12:26:54;100605.91;;;23.98
41654;BMP280;30790;52.030;7.110;2022-08-18T12:29:20;100613.56;;;24.01
41654;BMP280;30790;52.030;7.110;2022-08-18T12:31:48;100620.16;;;24.05
41654;BMP280;30790;52.030;7.110;2022-08-18T12:34:19;100608.38;;;24.04
41654;BMP280;30790;52.030;7.110;2022-08-18T12:36:49;100605.63;;;23.99
41654;BMP280;30790;52.030;7.110;2022-08-18T12:39:15;100600.69;;;24.01
41654;BMP280;30790;52.030;7.110;2022-08-18T12:41:40;100601.50;;;23.97
41654;BMP280;30790;52.030;7.110;2022-08-18T12:44:05;100583.13;;;23.97
41654;BMP280;30790;52.030;7.110;2022-08-18T12:46:31;100576.28;;;23.95
41654;BMP280;30790;52.030;7.110;2022-08-18T12:48:56;100582.59;;;24.00
41654;BMP280;30790;52.030;7.110;2022-08-18T12:51:22;100581.78;;;24.00
41654;BMP280;30790;52.030;7.110;2022-08-18T12:53:47;100584.78;;;23.98
41654;BMP280;30790;52.030;7.110;2022-08-18T12:56:28;100586.16;;;24.01
41654;BMP280;30790;52.030;7.110;2022-08-18T12:58:59;100588.06;;;24.05
41654;BMP280;30790;52.030;7.110;2022-08-18T13:01:25;100581.22;;;24.03
41654;BMP280;30790;52.030;7.110;2022-08-18T13:03:51;100593.81;;;24.04
41654;BMP280;30790;52.030;7.110;2022-08-18T13:06:19;100600.97;;;24.10
41654;BMP280;30790;52.030;7.110;2022-08-18T13:08:46;100598.50;;;24.09
41654;BMP280;30790;52.030;7.110;2022-08-18T13:11:11;100590.53;;;24.07
41654;BMP280;30790;52.030;7.110;2022-08-18T13:13:37;100588.91;;;24.11
41654;BMP280;30790;52.030;7.110;2022-08-18T13:16:06;100606.75;;;24.14
41654;BMP280;30790;52.030;7.110;2022-08-18T13:18:35;100606.44;;;24.10
41654;BMP280;30790;52.030;7.110;2022-08-18T13:21:02;100605.91;;;24.13
41654;BMP280;30790;52.030;7.110;2022-08-18T13:23:28;100619.09;;;24.16
41654;BMP280;30790;52.030;7.110;2022-08-18T13:25:55;100621.00;;;24.16
41654;BMP280;30790;52.030;7.110;2022-08-18T13:28:22;100626.19;;;24.07
41654;BMP280;30790;52.030;7.110;2022-08-18T13:30:47;100639.66;;;24.14
41654;BMP280;30790;52.030;7.110;2022-08-18T13:33:15;100639.38;;;24.15
41654;BMP280;30790;52.030;7.110;2022-08-18T13:35:41;100638.00;;;24.13
41654;BMP280;30790;52.030;7.110;2022-08-18T13:38:06;100636.09;;;24.13
41654;BMP280;30790;52.030;7.110;2022-08-18T13:40:31;100622.06;;;24.10
41654;BMP280;30790;52.030;7.110;2022-08-18T13:42:57;100620.16;;;24.10
41654;BMP280;30790;52.030;7.110;2022-08-18T13:45:23;100602.63;;;24.11
41654;BMP280;30790;52.030;7.110;2022-08-18T13:47:50;100598.25;;;24.15
41654;BMP280;30790;52.030;7.110;2022-08-18T13:50:15;100601.53;;;24.17
41654;BMP280;30790;52.030;7.110;2022-08-18T13:52:42;100609.75;;;24.17
41654;BMP280;30790;52.030;7.110;2022-08-18T13:55:11;100611.41;;;24.18
41654;BMP280;30790;52.030;7.110;2022-08-18T13:57:38;100600.69;;;24.07
41654;BMP280;30790;52.030;7.110;2022-08-18T14:00:07;100615.78;;;24.19
41654;BMP280;30790;52.030;7.110;2022-08-18T14:02:35;100600.97;;;24.15
41654;BMP280;30790;52.030;7.110;2022-08-18T14:05:00;100607.00;;;24.17
41654;BMP280;30790;52.030;7.110;2022-08-18T14:07:26;100598.22;;;24.05
41654;BMP280;30790;52.030;7.110;2022-08-18T14:09:51;100577.66;;;24.02
41654;BMP280;30790;52.030;7.110;2022-08-18T14:12:21;100590.56;;;24.12
41654;BMP280;30790;52.030;7.110;2022-08-18T14:14:48;100582.31;;;24.07
41654;BMP280;30790;52.030;7.110;2022-08-18T14:17:14;100581.50;;;24.07
41654;BMP280;30790;52.030;7.110;2022-08-18T14:19:39;100585.88;;;24.08
41654;BMP280;30790;52.030;7.110;2022-08-18T14:22:23;100582.31;;;24.07
41654;BMP280;30790;52.030;7.110;2022-08-18T14:25:08;100578.19;;;24.04
41654;BMP280;30790;52.030;7.110;2022-08-18T14:27:51;100574.91;;;24.02
41654;BMP280;30790;52.030;7.110;2022-08-18T14:30:17;100565.03;;;23.96
41654;BMP280;30790;52.030;7.110;2022-08-18T14:32:44;100549.97;;;23.89
41654;BMP280;30790;52.030;7.110;2022-08-18T14:35:11;100551.34;;;23.91
41654;BMP280;30790;52.030;7.110;2022-08-18T14:37:38;100564.22;;;24.01
41654;BMP280;30790;52.030;7.110;2022-08-18T14:40:05;100565.31;;;24.00
41654;BMP280;30790;52.030;7.110;2022-08-18T14:42:32;100558.19;;;23.94
41654;BMP280;30790;52.030;7.110;2022-08-18T14:44:57;100566.16;;;23.95
41654;BMP280;30790;52.030;7.110;2022-08-18T14:47:23;100562.03;;;24.03
41654;BMP280;30790;52.030;7.110;2022-08-18T14:49:51;100565.88;;;23.97
41654;BMP280;30790;52.030;7.110;2022-08-18T14:52:16;100551.63;;;23.90
41654;BMP280;30790;52.030;7.110;2022-08-18T14:54:42;100563.13;;;23.92
41654;BMP280;30790;52.030;7.110;2022-08-18T14:57:07;100566.41;;;23.94
41654;BMP280;30790;52.030;7.110;2022-08-18T14:59:36;100574.63;;;24.04
41654;BMP280;30790;52.030;7.110;2022-08-18T15:02:03;100565.03;;;24.07
41654;BMP280;30790;52.030;7.110;2022-08-18T15:04:28;100552.44;;;23.95
41654;BMP280;30790;52.030;7.110;2022-08-18T15:06:54;100557.09;;;24.00
41654;BMP280;30790;52.030;7.110;2022-08-18T15:09:19;100551.06;;;23.98
41654;BMP280;30790;52.030;7.110;2022-08-18T15:11:44;100553.53;;;23.89
41654;BMP280;30790;52.030;7.110;2022-08-18T15:14:10;100557.66;;;23.97
41654;BMP280;30790;52.030;7.110;2022-08-18T15:16:35;100563.69;;;23.99
41654;BMP280;30790;52.030;7.110;2022-08-18T15:19:01;100570.25;;;24.03
41654;BMP280;30790;52.030;7.110;2022-08-18T15:21:28;100553.53;;;23.94
41654;BMP280;30790;52.030;7.110;2022-08-18T15:24:12;100569.16;;;23.99
41654;BMP280;30790;52.030;7.110;2022-08-18T15:26:57;100563.69;;;23.99
41654;BMP280;30790;52.030;7.110;2022-08-18T15:29:23;100566.69;;;23.97
41654;BMP280;30790;52.030;7.110;2022-08-18T15:31:48;100549.16;;;23.93
41654;BMP280;30790;52.030;7.110;2022-08-18T15:34:14;100555.19;;;23.95
41654;BMP280;30790;52.030;7.110;2022-08-18T15:36:41;100544.22;;;23.90
41654;BMP280;30790;52.030;7.110;2022-08-18T15:39:06;100557.09;;;23.95
41654;BMP280;30790;52.030;7.110;2022-08-18T15:41:35;100550.53;;;23.91
41654;BMP280;30790;52.030;7.110;2022-08-18T15:44:03;100561.22;;;23.92
41654;BMP280;30790;52.030;7.110;2022-08-18T15:46:31;100558.75;;;23.91
41654;BMP280;30790;52.030;7.110;2022-08-18T15:48:56;100556.53;;;23.98
41654;BMP280;30790;52.030;7.110;2022-08-18T15:51:22;100561.50;;;23.86
41654;BMP280;30790;52.030;7.110;2022-08-18T15:53:47;100557.09;;;23.85
41654;BMP280;30790;52.030;7.110;2022-08-18T15:56:21;100557.09;;;23.90
41654;BMP280;30790;52.030;7.110;2022-08-18T15:58:48;100529.66;;;23.80
41654;BMP280;30790;52.030;7.110;2022-08-18T16:01:14;100557.06;;;23.80
41654;BMP280;30790;52.030;7.110;2022-08-18T16:03:39;100560.13;;;23.83
41654;BMP280;30790;52.030;7.110;2022-08-18T16:06:05;100553.81;;;23.93
41654;BMP280;30790;52.030;7.110;2022-08-18T16:08:32;100560.38;;;23.97
41654;BMP280;30790;52.030;7.110;2022-08-18T16:11:05;100563.41;;;23.95
41654;BMP280;30790;52.030;7.110;2022-08-18T16:13:31;100549.16;;;23.93
41654;BMP280;30790;52.030;7.110;2022-08-18T16:15:57;100539.56;;;23.86
41654;BMP280;30790;52.030;7.110;2022-08-18T16:18:22;100544.50;;;23.94
41654;BMP280;30790;52.030;7.110;2022-08-18T16:20:48;100560.94;;;24.04
41654;BMP280;30790;52.030;7.110;2022-08-18T16:23:13;100564.75;;;24.03
41654;BMP280;30790;52.030;7.110;2022-08-18T16:25:41;100549.41;;;23.97
41654;BMP280;30790;52.030;7.110;2022-08-18T16:28:07;100568.06;;;24.05
41654;BMP280;30790;52.030;7.110;2022-08-18T16:30:33;100533.81;;;23.87
41654;BMP280;30790;52.030;7.110;2022-08-18T16:33:00;100579.84;;;24.05
41654;BMP280;30790;52.030;7.110;2022-08-18T16:35:30;100553.53;;;23.99
41654;BMP280;30790;52.030;7.110;2022-08-18T16:38:01;100557.09;;;23.95
41654;BMP280;30790;52.030;7.110;2022-08-18T16:40:26;100561.22;;;23.97
41654;BMP280;30790;52.030;7.110;2022-08-18T16:42:53;100554.91;;;23.97